createdAt,value
2019-05-29T00:00:03.539Z,0.00
2019-05-29T00:01:03.547Z,0.00
2019-05-29T00:02:03.542Z,0.00
2019-05-29T00:03:03.503Z,0.00
2019-05-29T00:04:03.492Z,0.00
2019-05-29T00:05:03.482Z,0.00
2019-05-29T00:06:03.471Z,0.00
2019-05-29T00:07:03.464Z,0.00
2019-05-29T00:08:03.512Z,0.00
2019-05-29T00:09:03.462Z,0.00
2019-05-29T00:10:03.439Z,0.00
2019-05-29T00:11:03.420Z,0.00
2019-05-29T00:12:03.420Z,0.00
2019-05-29T00:13:03.422Z,0.00
2019-05-29T00:14:17.888Z,0.00
2019-05-29T00:15:04.381Z,0.00
2019-05-29T00:16:03.379Z,0.00
2019-05-29T00:17:03.372Z,0.00
2019-05-29T00:18:03.370Z,0.00
2019-05-29T00:19:03.352Z,0.00
2019-05-29T00:20:03.342Z,0.00
2019-05-29T00:21:03.329Z,0.00
2019-05-29T00:22:03.312Z,0.00
2019-05-29T00:23:03.319Z,0.00
2019-05-29T00:24:03.298Z,0.00
2019-05-29T00:25:03.289Z,0.00
2019-05-29T00:26:03.279Z,0.00
2019-05-29T00:27:03.269Z,0.00
2019-05-29T00:28:03.271Z,0.00
2019-05-29T00:29:03.252Z,0.00
2019-05-29T00:30:03.238Z,0.00
2019-05-29T00:31:03.252Z,0.00
2019-05-29T00:32:03.228Z,0.00
2019-05-29T00:33:03.218Z,0.00
2019-05-29T00:34:03.202Z,0.00
2019-05-29T00:35:03.257Z,0.00
2019-05-29T00:36:03.183Z,0.00
2019-05-29T00:37:03.182Z,0.00
2019-05-29T00:38:03.223Z,0.00
2019-05-29T00:39:03.157Z,0.00
2019-05-29T00:40:03.147Z,0.00
2019-05-29T00:41:03.128Z,0.00
2019-05-29T00:42:03.117Z,0.00
2019-05-29T00:43:03.116Z,0.00
2019-05-29T00:44:03.098Z,0.00
2019-05-29T00:45:03.102Z,0.00
2019-05-29T00:46:03.085Z,0.00
2019-05-29T00:47:03.065Z,0.00
2019-05-29T00:48:03.077Z,0.00
2019-05-29T00:49:03.046Z,0.00
2019-05-29T00:50:03.035Z,0.00
2019-05-29T00:51:03.037Z,0.00
2019-05-29T00:52:03.019Z,0.00
2019-05-29T00:53:03.024Z,0.00
2019-05-29T00:54:02.995Z,0.00
2019-05-29T00:55:02.993Z,0.00
2019-05-29T00:56:02.985Z,0.00
2019-05-29T00:57:02.973Z,0.00
2019-05-29T00:58:02.975Z,0.00
2019-05-29T00:59:02.945Z,0.00
2019-05-29T01:00:02.934Z,0.00
2019-05-29T01:01:02.934Z,0.00
2019-05-29T01:02:02.925Z,0.00
2019-05-29T01:03:02.934Z,0.00
2019-05-29T01:04:02.904Z,0.00
2019-05-29T01:05:02.895Z,0.00
2019-05-29T01:06:02.892Z,0.00
2019-05-29T01:07:02.878Z,0.00
2019-05-29T01:08:02.862Z,0.00
2019-05-29T01:09:02.875Z,0.00
2019-05-29T01:10:02.862Z,0.00
2019-05-29T01:11:02.831Z,0.00
2019-05-29T01:12:02.822Z,0.00
2019-05-29T01:13:02.814Z,0.00
2019-05-29T01:14:02.812Z,0.00
2019-05-29T01:15:02.791Z,0.00
2019-05-29T01:16:02.781Z,0.00
2019-05-29T01:17:02.770Z,0.00
2019-05-29T01:18:02.761Z,0.00
2019-05-29T01:19:02.761Z,0.00
2019-05-29T01:20:02.740Z,0.00
2019-05-29T01:21:02.735Z,0.00
2019-05-29T01:22:02.721Z,0.00
2019-05-29T01:23:02.724Z,0.00
2019-05-29T01:24:02.720Z,0.00
2019-05-29T01:25:02.691Z,0.00
2019-05-29T01:26:02.681Z,0.00
2019-05-29T01:27:02.677Z,0.00
2019-05-29T01:28:02.659Z,0.00
2019-05-29T01:29:02.673Z,0.00
2019-05-29T01:30:02.641Z,0.00
2019-05-29T01:31:02.630Z,0.00
2019-05-29T01:32:02.631Z,0.00
2019-05-29T01:33:02.621Z,0.00
2019-05-29T01:34:02.619Z,0.00
2019-05-29T01:35:02.623Z,0.00
2019-05-29T01:36:02.578Z,0.00
2019-05-29T01:37:02.569Z,0.00
2019-05-29T01:38:02.568Z,0.00
2019-05-29T01:39:02.571Z,0.00
2019-05-29T01:40:16.595Z,0.00
2019-05-29T01:41:03.548Z,0.00
2019-05-29T01:42:02.517Z,0.00
2019-05-29T01:43:02.521Z,0.00
2019-05-29T01:44:02.517Z,0.00
2019-05-29T01:45:07.679Z,0.00
2019-05-29T01:46:03.488Z,0.00
2019-05-29T01:47:02.482Z,0.00
2019-05-29T01:48:02.466Z,0.00
2019-05-29T01:49:02.468Z,0.00
2019-05-29T01:50:02.447Z,0.00
2019-05-29T01:51:02.445Z,0.00
2019-05-29T01:52:02.426Z,0.00
2019-05-29T01:53:02.418Z,0.00
2019-05-29T01:54:02.416Z,0.00
2019-05-29T01:55:02.402Z,0.00
2019-05-29T01:56:02.386Z,0.00
2019-05-29T01:57:02.393Z,0.00
2019-05-29T01:58:02.365Z,0.00
2019-05-29T01:59:02.387Z,0.00
2019-05-29T02:00:02.345Z,0.00
2019-05-29T02:01:02.345Z,0.00
2019-05-29T02:02:02.331Z,0.00
2019-05-29T02:03:02.325Z,0.00
2019-05-29T02:04:02.336Z,0.00
2019-05-29T02:05:02.311Z,0.00
2019-05-29T02:06:02.290Z,0.00
2019-05-29T02:07:02.294Z,0.00
2019-05-29T02:08:02.277Z,0.00
2019-05-29T02:09:02.273Z,0.00
2019-05-29T02:10:02.256Z,0.00
2019-05-29T02:11:02.242Z,0.00
2019-05-29T02:12:02.237Z,0.00
2019-05-29T02:13:02.223Z,0.00
2019-05-29T02:14:02.236Z,0.00
2019-05-29T02:15:02.205Z,0.00
2019-05-29T02:16:02.192Z,0.00
2019-05-29T02:17:02.183Z,0.00
2019-05-29T02:18:02.188Z,0.00
2019-05-29T02:19:02.172Z,0.00
2019-05-29T02:20:02.163Z,0.00
2019-05-29T02:21:02.141Z,0.00
2019-05-29T02:22:02.143Z,0.00
2019-05-29T02:23:02.127Z,0.00
2019-05-29T02:24:02.124Z,0.00
2019-05-29T02:25:02.123Z,0.00
2019-05-29T02:26:02.092Z,0.00
2019-05-29T02:27:02.090Z,0.00
2019-05-29T02:28:02.072Z,0.00
2019-05-29T02:29:02.069Z,0.00
2019-05-29T02:30:02.101Z,0.00
2019-05-29T02:31:02.055Z,0.00
2019-05-29T02:32:02.035Z,0.00
2019-05-29T02:33:02.032Z,0.00
2019-05-29T02:34:02.044Z,0.00
2019-05-29T02:35:02.026Z,0.00
2019-05-29T02:36:02.006Z,0.00
2019-05-29T02:37:01.991Z,0.00
2019-05-29T02:38:01.995Z,0.00
2019-05-29T02:39:01.978Z,0.00
2019-05-29T02:40:01.987Z,0.00
2019-05-29T02:41:01.994Z,0.00
2019-05-29T02:42:01.942Z,0.00
2019-05-29T02:43:01.954Z,0.00
2019-05-29T02:44:01.950Z,0.00
2019-05-29T02:45:01.934Z,0.00
2019-05-29T02:46:01.900Z,0.00
2019-05-29T02:47:01.909Z,0.00
2019-05-29T02:48:01.947Z,0.00
2019-05-29T02:49:01.910Z,0.00
2019-05-29T02:50:01.878Z,0.00
2019-05-29T02:51:01.859Z,0.00
2019-05-29T02:52:01.839Z,0.00
2019-05-29T02:53:01.949Z,0.00
2019-05-29T02:54:01.826Z,0.00
2019-05-29T02:55:01.866Z,0.00
2019-05-29T02:56:01.809Z,0.00
2019-05-29T02:57:01.798Z,0.00
2019-05-29T02:58:01.792Z,0.00
2019-05-29T02:59:01.778Z,0.00
2019-05-29T03:00:01.790Z,0.00
2019-05-29T03:01:01.843Z,0.00
2019-05-29T03:02:01.753Z,0.00
2019-05-29T03:03:01.741Z,0.00
2019-05-29T03:04:01.736Z,0.00
2019-05-29T03:05:01.748Z,0.00
2019-05-29T03:06:01.707Z,0.00
2019-05-29T03:07:01.705Z,0.00
2019-05-29T03:08:01.686Z,0.00
2019-05-29T03:09:01.675Z,0.00
2019-05-29T03:10:01.676Z,0.00
2019-05-29T03:11:01.661Z,0.00
2019-05-29T03:12:01.665Z,0.00
2019-05-29T03:13:01.637Z,0.00
2019-05-29T03:14:01.636Z,4.00
2019-05-29T03:15:01.639Z,4.00
2019-05-29T03:16:10.578Z,0.00
2019-05-29T03:17:02.594Z,4.00
2019-05-29T03:18:01.594Z,4.00
2019-05-29T03:19:01.578Z,4.00
2019-05-29T03:20:01.584Z,4.00
2019-05-29T03:21:01.562Z,8.00
2019-05-29T03:22:01.552Z,4.00
2019-05-29T03:23:01.543Z,8.00
2019-05-29T03:24:01.544Z,8.00
2019-05-29T03:25:01.544Z,12.00
2019-05-29T03:26:01.514Z,8.00
2019-05-29T03:27:01.514Z,8.00
2019-05-29T03:28:01.499Z,12.00
2019-05-29T03:29:01.482Z,12.00
2019-05-29T03:30:01.499Z,12.00
2019-05-29T03:31:01.496Z,16.00
2019-05-29T03:32:01.443Z,20.00
2019-05-29T03:33:01.465Z,20.00
2019-05-29T03:34:01.476Z,24.00
2019-05-29T03:35:01.422Z,28.00
2019-05-29T03:36:01.434Z,28.00
2019-05-29T03:37:01.410Z,32.00
2019-05-29T03:38:01.401Z,36.00
2019-05-29T03:39:01.392Z,36.00
2019-05-29T03:40:01.408Z,40.00
2019-05-29T03:41:01.392Z,40.00
2019-05-29T03:42:01.368Z,48.00
2019-05-29T03:43:01.369Z,52.00
2019-05-29T03:44:01.332Z,52.00
2019-05-29T03:45:01.321Z,56.00
2019-05-29T03:46:01.319Z,64.00
2019-05-29T03:47:01.301Z,68.00
2019-05-29T03:48:01.300Z,68.00
2019-05-29T03:49:01.297Z,80.00
2019-05-29T03:50:01.273Z,92.00
2019-05-29T03:51:01.279Z,96.00
2019-05-29T03:52:01.260Z,104.00
2019-05-29T03:53:01.277Z,104.00
2019-05-29T03:54:01.240Z,104.00
2019-05-29T03:55:01.230Z,116.00
2019-05-29T03:56:01.229Z,116.00
2019-05-29T03:57:01.208Z,124.00
2019-05-29T03:58:01.198Z,144.00
2019-05-29T03:59:01.202Z,144.00
2019-05-29T04:00:01.200Z,148.00
2019-05-29T04:01:01.182Z,148.00
2019-05-29T04:02:01.165Z,148.00
2019-05-29T04:03:01.157Z,152.00
2019-05-29T04:04:01.148Z,164.00
2019-05-29T04:05:01.129Z,200.00
2019-05-29T04:06:01.128Z,248.00
2019-05-29T04:07:01.118Z,304.00
2019-05-29T04:08:01.105Z,336.00
2019-05-29T04:09:01.108Z,348.00
2019-05-29T04:10:01.076Z,348.00
2019-05-29T04:11:01.087Z,352.00
2019-05-29T04:12:01.067Z,360.00
2019-05-29T04:13:01.054Z,396.00
2019-05-29T04:14:01.038Z,460.00
2019-05-29T04:15:01.037Z,488.00
2019-05-29T04:16:01.027Z,496.00
2019-05-29T04:17:01.030Z,500.00
2019-05-29T04:18:01.005Z,496.00
2019-05-29T04:19:00.995Z,512.00
2019-05-29T04:20:00.984Z,548.00
2019-05-29T04:21:00.984Z,584.00
2019-05-29T04:22:00.954Z,628.00
2019-05-29T04:23:00.956Z,644.00
2019-05-29T04:24:00.953Z,632.00
2019-05-29T04:25:00.942Z,636.00
2019-05-29T04:26:00.942Z,676.00
2019-05-29T04:27:00.915Z,720.00
2019-05-29T04:28:00.909Z,800.00
2019-05-29T04:29:00.896Z,840.00
2019-05-29T04:30:00.884Z,804.00
2019-05-29T04:31:00.893Z,792.00
2019-05-29T04:32:00.864Z,808.00
2019-05-29T04:33:00.863Z,828.00
2019-05-29T04:34:00.863Z,832.00
2019-05-29T04:35:00.832Z,832.00
2019-05-29T04:36:00.844Z,860.00
2019-05-29T04:37:00.814Z,896.00
2019-05-29T04:38:00.802Z,912.00
2019-05-29T04:39:00.801Z,924.00
2019-05-29T04:40:00.783Z,920.00
2019-05-29T04:41:00.797Z,880.00
2019-05-29T04:42:00.763Z,840.00
2019-05-29T04:43:00.762Z,836.00
2019-05-29T04:44:00.763Z,864.00
2019-05-29T04:45:00.762Z,864.00
2019-05-29T04:46:00.744Z,872.00
2019-05-29T04:47:11.079Z,864.00
2019-05-29T04:48:01.712Z,868.00
2019-05-29T04:49:00.712Z,880.00
2019-05-29T04:50:00.692Z,912.00
2019-05-29T04:51:00.720Z,952.00
2019-05-29T04:52:00.672Z,1024.00
2019-05-29T04:53:00.652Z,1064.00
2019-05-29T04:54:00.650Z,1116.00
2019-05-29T04:55:00.642Z,1164.00
2019-05-29T04:56:00.630Z,1204.00
2019-05-29T04:57:00.633Z,1200.00
2019-05-29T04:58:00.624Z,1164.00
2019-05-29T04:59:00.605Z,1104.00
2019-05-29T05:00:00.592Z,1064.00
2019-05-29T05:01:00.581Z,1028.00
2019-05-29T05:02:00.587Z,1052.00
2019-05-29T05:03:00.568Z,1088.00
2019-05-29T05:04:00.549Z,1132.00
2019-05-29T05:05:00.544Z,1176.00
2019-05-29T05:06:00.528Z,1216.00
2019-05-29T05:07:00.531Z,1252.00
2019-05-29T05:08:00.518Z,1256.00
2019-05-29T05:09:00.501Z,1296.00
2019-05-29T05:10:00.488Z,1288.00
2019-05-29T05:11:00.479Z,1320.00
2019-05-29T05:12:00.488Z,1376.00
2019-05-29T05:13:00.468Z,1412.00
2019-05-29T05:14:01.715Z,1428.00
2019-05-29T05:15:00.448Z,1440.00
2019-05-29T05:16:00.436Z,1456.00
2019-05-29T05:17:00.428Z,1496.00
2019-05-29T05:18:00.423Z,1520.00
2019-05-29T05:19:00.396Z,1576.00
2019-05-29T05:20:00.386Z,1608.00
2019-05-29T05:21:00.386Z,1600.00
2019-05-29T05:22:00.388Z,1640.00
2019-05-29T05:23:00.357Z,1732.00
2019-05-29T05:24:00.348Z,1844.00
2019-05-29T05:25:00.365Z,1900.00
2019-05-29T05:26:00.485Z,1900.00
2019-05-29T05:27:00.336Z,1892.00
2019-05-29T05:28:00.365Z,1836.00
2019-05-29T05:29:00.324Z,1808.00
2019-05-29T05:30:00.288Z,1736.00
2019-05-29T05:31:00.287Z,1652.00
2019-05-29T05:32:00.370Z,1584.00
2019-05-29T05:33:00.275Z,1532.00
2019-05-29T05:34:00.264Z,1492.00
2019-05-29T05:35:00.264Z,1468.00
2019-05-29T05:36:00.264Z,1448.00
2019-05-29T05:37:00.235Z,1408.00
2019-05-29T05:38:00.224Z,1440.00
2019-05-29T05:39:00.195Z,1464.00
2019-05-29T05:40:00.193Z,1396.00
2019-05-29T05:41:00.183Z,1352.00
2019-05-29T05:42:00.204Z,1352.00
2019-05-29T05:43:00.164Z,1364.00
2019-05-29T05:44:00.155Z,1332.00
2019-05-29T05:45:00.151Z,1280.00
2019-05-29T05:46:00.132Z,1172.00
2019-05-29T05:47:00.121Z,1184.00
2019-05-29T05:48:00.123Z,1344.00
2019-05-29T05:49:00.101Z,1372.00
2019-05-29T05:50:00.092Z,1308.00
2019-05-29T05:51:00.081Z,1172.00
2019-05-29T05:52:00.062Z,1108.00
2019-05-29T05:53:00.074Z,1128.00
2019-05-29T05:54:00.044Z,1204.00
2019-05-29T05:55:00.041Z,1232.00
2019-05-29T05:56:00.032Z,1204.00
2019-05-29T05:57:00.012Z,1236.00
2019-05-29T05:58:00.022Z,1352.00
2019-05-29T05:59:00.002Z,1472.00
2019-05-29T05:59:59.985Z,1660.00
2019-05-29T06:00:59.990Z,1776.00
2019-05-29T06:01:59.982Z,1756.00
2019-05-29T06:02:59.963Z,1708.00
2019-05-29T06:03:59.940Z,1740.00
2019-05-29T06:04:59.929Z,1908.00
2019-05-29T06:05:59.937Z,2096.00
2019-05-29T06:07:07.769Z,2068.00
2019-05-29T06:07:59.958Z,1944.00
2019-05-29T06:08:59.932Z,1968.00
2019-05-29T06:09:59.926Z,2056.00
2019-05-29T06:10:59.949Z,2024.00
2019-05-29T06:11:59.877Z,1972.00
2019-05-29T06:12:59.958Z,1960.00
2019-05-29T06:13:59.848Z,1856.00
2019-05-29T06:14:59.943Z,1704.00
2019-05-29T06:15:59.867Z,1572.00
2019-05-29T06:16:59.858Z,1512.00
2019-05-29T06:18:19.371Z,1100.00
2019-05-29T06:19:00.797Z,1448.00
2019-05-29T06:19:59.781Z,1408.00
2019-05-29T06:20:59.785Z,1404.00
2019-05-29T06:21:59.757Z,1416.00
2019-05-29T06:22:59.785Z,1408.00
2019-05-29T06:23:59.751Z,1412.00
2019-05-29T06:24:59.736Z,1448.00
2019-05-29T06:26:00.243Z,1492.00
2019-05-29T06:26:59.707Z,1576.00
2019-05-29T06:27:59.718Z,1664.00
2019-05-29T06:28:59.730Z,1756.00
2019-05-29T06:29:59.674Z,1868.00
2019-05-29T06:30:59.677Z,1976.00
2019-05-29T06:31:59.648Z,2072.00
2019-05-29T06:32:59.668Z,2136.00
2019-05-29T06:33:59.667Z,2160.00
2019-05-29T06:34:59.636Z,2168.00
2019-05-29T06:35:59.612Z,2188.00
2019-05-29T06:36:59.607Z,2216.00
2019-05-29T06:37:59.595Z,2296.00
2019-05-29T06:38:59.606Z,2392.00
2019-05-29T06:39:59.585Z,2500.00
2019-05-29T06:40:59.577Z,2604.00
2019-05-29T06:41:59.564Z,2668.00
2019-05-29T06:42:59.545Z,2692.00
2019-05-29T06:43:59.548Z,2680.00
2019-05-29T06:44:59.577Z,2676.00
2019-05-29T06:45:59.536Z,2684.00
2019-05-29T06:46:59.505Z,2680.00
2019-05-29T06:47:59.519Z,2696.00
2019-05-29T06:49:00.973Z,2744.00
2019-05-29T06:49:59.463Z,2828.00
2019-05-29T06:50:59.476Z,2900.00
2019-05-29T06:51:59.463Z,2932.00
2019-05-29T06:52:59.453Z,3064.00
2019-05-29T06:53:59.463Z,3140.00
2019-05-29T06:54:59.424Z,3116.00
2019-05-29T06:56:01.032Z,3092.00
2019-05-29T06:56:59.417Z,3060.00
2019-05-29T06:57:59.418Z,2876.00
2019-05-29T06:58:59.382Z,2716.00
2019-05-29T06:59:59.371Z,2700.00
2019-05-29T07:00:59.364Z,2656.00
2019-05-29T07:01:59.423Z,2540.00
2019-05-29T07:02:59.332Z,2492.00
2019-05-29T07:04:11.510Z,2460.00
2019-05-29T07:05:00.322Z,2404.00
2019-05-29T07:05:59.303Z,2436.00
2019-05-29T07:06:59.286Z,2464.00
2019-05-29T07:08:15.033Z,2496.00
2019-05-29T07:09:00.281Z,2556.00
2019-05-29T07:09:59.251Z,2648.00
2019-05-29T07:10:59.271Z,2680.00
2019-05-29T07:11:59.245Z,2740.00
2019-05-29T07:12:59.251Z,2716.00
2019-05-29T07:13:59.236Z,2808.00
2019-05-29T07:14:59.211Z,3036.00
2019-05-29T07:15:59.354Z,3364.00
2019-05-29T07:16:59.190Z,3756.00
2019-05-29T07:17:59.172Z,4048.00
2019-05-29T07:20:03.832Z,4636.00
2019-05-29T07:20:59.157Z,4880.00
2019-05-29T07:21:59.140Z,5388.00
2019-05-29T07:22:59.149Z,5964.00
2019-05-29T07:23:59.111Z,6504.00
2019-05-29T07:24:59.090Z,6996.00
2019-05-29T07:25:59.176Z,7084.00
2019-05-29T07:26:59.108Z,7020.00
2019-05-29T07:27:59.068Z,6820.00
2019-05-29T07:29:08.113Z,6676.00
2019-05-29T07:30:00.029Z,6300.00
2019-05-29T07:31:02.753Z,6052.00
2019-05-29T07:31:59.010Z,5612.00
2019-05-29T07:32:59.280Z,5204.00
2019-05-29T07:33:59.109Z,5136.00
2019-05-29T07:35:03.533Z,5076.00
2019-05-29T07:35:59.967Z,5024.00
2019-05-29T07:36:59.068Z,5052.00
2019-05-29T07:37:58.948Z,4956.00
2019-05-29T07:39:03.688Z,4628.00
2019-05-29T07:39:59.927Z,4512.00
2019-05-29T07:40:58.908Z,4340.00
2019-05-29T07:41:58.897Z,4300.00
2019-05-29T07:42:58.889Z,4312.00
2019-05-29T07:43:58.887Z,4152.00
2019-05-29T07:44:58.857Z,4180.00
2019-05-29T07:45:58.888Z,4120.00
2019-05-29T07:46:58.848Z,4128.00
2019-05-29T07:47:58.842Z,4064.00
2019-05-29T07:48:58.835Z,3980.00
2019-05-29T07:49:58.845Z,3880.00
2019-05-29T07:51:07.035Z,3784.00
2019-05-29T07:51:59.786Z,3740.00
2019-05-29T07:52:59.212Z,3752.00
2019-05-29T07:53:58.746Z,3824.00
2019-05-29T07:54:58.763Z,3980.00
2019-05-29T07:55:58.726Z,4068.00
2019-05-29T07:56:58.725Z,4216.00
2019-05-29T07:57:58.707Z,4272.00
2019-05-29T07:59:03.288Z,4244.00
2019-05-29T07:59:59.685Z,4104.00
2019-05-29T08:01:11.690Z,4028.00
2019-05-29T08:01:59.661Z,4012.00
2019-05-29T08:02:58.646Z,4020.00
2019-05-29T08:03:58.637Z,3920.00
2019-05-29T08:04:58.646Z,3800.00
2019-05-29T08:05:58.617Z,3760.00
2019-05-29T08:06:58.604Z,3780.00
2019-05-29T08:07:58.587Z,3704.00
2019-05-29T08:08:58.588Z,3552.00
2019-05-29T08:09:58.581Z,3552.00
2019-05-29T08:10:58.555Z,3472.00
2019-05-29T08:11:58.535Z,3600.00
2019-05-29T08:12:58.546Z,3584.00
2019-05-29T08:13:58.515Z,3596.00
2019-05-29T08:14:58.534Z,3656.00
2019-05-29T08:16:02.975Z,3744.00
2019-05-29T08:16:58.505Z,3728.00
2019-05-29T08:17:58.470Z,3592.00
2019-05-29T08:18:58.456Z,3424.00
2019-05-29T08:20:06.449Z,3252.00
2019-05-29T08:20:59.432Z,3092.00
2019-05-29T08:21:58.437Z,3100.00
2019-05-29T08:22:58.414Z,3192.00
2019-05-29T08:23:58.414Z,3280.00
2019-05-29T08:24:58.407Z,3220.00
2019-05-29T08:25:58.374Z,3096.00
2019-05-29T08:26:58.374Z,3020.00
2019-05-29T08:27:58.343Z,2912.00
2019-05-29T08:28:58.343Z,2660.00
2019-05-29T08:29:58.343Z,2516.00
2019-05-29T08:30:58.339Z,2500.00
2019-05-29T08:31:58.297Z,2556.00
2019-05-29T08:32:58.306Z,2644.00
2019-05-29T08:33:58.273Z,2836.00
2019-05-29T08:34:58.295Z,3124.00
2019-05-29T08:36:00.375Z,3204.00
2019-05-29T08:37:06.509Z,3464.00
2019-05-29T08:37:59.261Z,3772.00
2019-05-29T08:38:58.227Z,4116.00
2019-05-29T08:39:58.241Z,4480.00
2019-05-29T08:40:58.192Z,4836.00
2019-05-29T08:42:21.026Z,5100.00
2019-05-29T08:42:59.242Z,5304.00
2019-05-29T08:43:58.181Z,5420.00
2019-05-29T08:44:58.392Z,5804.00
2019-05-29T08:45:58.160Z,6336.00
2019-05-29T08:47:09.632Z,6632.00
2019-05-29T08:47:59.110Z,6984.00
2019-05-29T08:48:58.101Z,7060.00
2019-05-29T08:50:16.841Z,7196.00
2019-05-29T08:50:59.071Z,7412.00
2019-05-29T08:52:11.326Z,7628.00
2019-05-29T08:53:02.430Z,7740.00
2019-05-29T08:53:58.042Z,7732.00
2019-05-29T08:54:58.087Z,7808.00
2019-05-29T08:55:58.012Z,7648.00
2019-05-29T08:56:58.002Z,7264.00
2019-05-29T08:57:58.044Z,6688.00
2019-05-29T08:58:57.989Z,6172.00
2019-05-29T08:59:57.990Z,5768.00
2019-05-29T09:00:57.953Z,5444.00
2019-05-29T09:01:57.942Z,5140.00
2019-05-29T09:02:57.930Z,4916.00
2019-05-29T09:03:57.923Z,4540.00
2019-05-29T09:04:57.909Z,4164.00
2019-05-29T09:06:08.486Z,3956.00
2019-05-29T09:06:58.881Z,3956.00
2019-05-29T09:07:57.867Z,4032.00
2019-05-29T09:08:57.855Z,4128.00
2019-05-29T09:09:57.850Z,4268.00
2019-05-29T09:10:57.821Z,4412.00
2019-05-29T09:11:57.811Z,4564.00
2019-05-29T09:13:04.677Z,4680.00
2019-05-29T09:13:58.782Z,4800.00
2019-05-29T09:14:57.795Z,4840.00
2019-05-29T09:15:57.760Z,4920.00
2019-05-29T09:16:57.765Z,4976.00
2019-05-29T09:17:57.740Z,4996.00
2019-05-29T09:18:57.723Z,5008.00
2019-05-29T09:19:57.732Z,5056.00
2019-05-29T09:21:03.480Z,5136.00
2019-05-29T09:21:58.679Z,5208.00
2019-05-29T09:22:57.700Z,5300.00
2019-05-29T09:23:58.920Z,5372.00
2019-05-29T09:24:57.662Z,5452.00
2019-05-29T09:26:13.590Z,5560.00
2019-05-29T09:26:58.618Z,5684.00
2019-05-29T09:27:57.620Z,5788.00
2019-05-29T09:28:57.763Z,5888.00
2019-05-29T09:29:57.599Z,5936.00
2019-05-29T09:30:57.586Z,5944.00
2019-05-29T09:31:57.646Z,5916.00
2019-05-29T09:32:57.558Z,5912.00
2019-05-29T09:33:57.538Z,5908.00
2019-05-29T09:34:57.548Z,5844.00
2019-05-29T09:35:57.518Z,5844.00
2019-05-29T09:36:57.498Z,5960.00
2019-05-29T09:37:57.509Z,6040.00
2019-05-29T09:38:57.498Z,6164.00
2019-05-29T09:39:57.487Z,6264.00
2019-05-29T09:40:57.458Z,6248.00
2019-05-29T09:41:57.457Z,6232.00
2019-05-29T09:42:57.420Z,6204.00
2019-05-29T09:43:59.604Z,6140.00
2019-05-29T09:44:57.398Z,6056.00
2019-05-29T09:45:57.418Z,5840.00
2019-05-29T09:46:57.379Z,5528.00
2019-05-29T09:47:57.358Z,5092.00
2019-05-29T09:49:01.116Z,4780.00
2019-05-29T09:49:57.339Z,4592.00
2019-05-29T09:50:57.345Z,4592.00
2019-05-29T09:51:57.920Z,4612.00
2019-05-29T09:52:59.001Z,4692.00
2019-05-29T09:53:58.252Z,4760.00
2019-05-29T09:54:58.266Z,4688.00
2019-05-29T09:55:58.734Z,4628.00
2019-05-29T09:56:58.375Z,4680.00
2019-05-29T09:57:58.568Z,4696.00
2019-05-29T09:58:58.474Z,4752.00
2019-05-29T09:59:59.560Z,4820.00
2019-05-29T10:01:15.478Z,4872.00
2019-05-29T10:02:00.302Z,4892.00
2019-05-29T10:02:59.322Z,4924.00
2019-05-29T10:03:59.661Z,5000.00
2019-05-29T10:04:58.113Z,5052.00
2019-05-29T10:05:57.561Z,5136.00
2019-05-29T10:06:57.609Z,5196.00
2019-05-29T10:07:58.114Z,5268.00
2019-05-29T10:08:58.022Z,5316.00
2019-05-29T10:09:58.608Z,5388.00
2019-05-29T10:11:04.724Z,5496.00
2019-05-29T10:12:02.211Z,5640.00
2019-05-29T10:12:58.209Z,5780.00
2019-05-29T10:13:58.677Z,5872.00
2019-05-29T10:14:57.628Z,5932.00
2019-05-29T10:15:57.745Z,6000.00
2019-05-29T10:16:59.291Z,6036.00
2019-05-29T10:17:58.492Z,6000.00
2019-05-29T10:18:58.527Z,5968.00
2019-05-29T10:19:57.251Z,5976.00
2019-05-29T10:20:58.089Z,6220.00
2019-05-29T10:21:58.332Z,6504.00
2019-05-29T10:22:57.179Z,6428.00
2019-05-29T10:23:57.980Z,6184.00
2019-05-29T10:24:57.959Z,5684.00
2019-05-29T10:25:58.429Z,5208.00
2019-05-29T10:26:57.502Z,4688.00
2019-05-29T10:27:56.875Z,4492.00
2019-05-29T10:29:08.015Z,4748.00
2019-05-29T10:29:57.844Z,4916.00
2019-05-29T10:30:56.865Z,5132.00
2019-05-29T10:31:56.828Z,5348.00
2019-05-29T10:32:56.826Z,5656.00
2019-05-29T10:33:56.793Z,5984.00
2019-05-29T10:34:56.780Z,6180.00
2019-05-29T10:35:56.778Z,6276.00
2019-05-29T10:36:56.764Z,6272.00
2019-05-29T10:37:56.743Z,6216.00
2019-05-29T10:38:56.730Z,6152.00
2019-05-29T10:39:56.731Z,6116.00
2019-05-29T10:41:06.444Z,6088.00
2019-05-29T10:41:57.704Z,6060.00
2019-05-29T10:42:56.682Z,6084.00
2019-05-29T10:43:56.674Z,6084.00
2019-05-29T10:44:56.654Z,6140.00
2019-05-29T10:45:56.646Z,6308.00
2019-05-29T10:46:56.789Z,6572.00
2019-05-29T10:47:56.621Z,6888.00
2019-05-29T10:48:56.800Z,7180.00
2019-05-29T10:49:56.594Z,7320.00
2019-05-29T10:50:56.597Z,7384.00
2019-05-29T10:52:10.917Z,7408.00
2019-05-29T10:52:57.553Z,7412.00
2019-05-29T10:53:58.799Z,7420.00
2019-05-29T10:54:56.553Z,7436.00
2019-05-29T10:55:56.523Z,7472.00
2019-05-29T10:56:56.529Z,7512.00
2019-05-29T10:57:56.518Z,7456.00
2019-05-29T10:58:59.821Z,7364.00
2019-05-29T10:59:56.512Z,7168.00
2019-05-29T11:00:56.486Z,6956.00
2019-05-29T11:01:56.472Z,6728.00
2019-05-29T11:02:57.674Z,6316.00
2019-05-29T11:03:56.432Z,5808.00
2019-05-29T11:04:59.102Z,5424.00
2019-05-29T11:05:56.611Z,4996.00
2019-05-29T11:06:56.904Z,4496.00
2019-05-29T11:07:56.408Z,4036.00
2019-05-29T11:08:56.425Z,3576.00
2019-05-29T11:09:56.358Z,3096.00
2019-05-29T11:10:56.423Z,2744.00
2019-05-29T11:11:57.737Z,2560.00
2019-05-29T11:12:56.760Z,2500.00
2019-05-29T11:13:57.164Z,2544.00
2019-05-29T11:14:56.931Z,2644.00
2019-05-29T11:15:56.892Z,2748.00
2019-05-29T11:16:57.612Z,2852.00
2019-05-29T11:17:57.387Z,2996.00
2019-05-29T11:18:57.351Z,3156.00
2019-05-29T11:19:58.081Z,3348.00
2019-05-29T11:20:57.538Z,3556.00
2019-05-29T11:22:01.057Z,3780.00
2019-05-29T11:22:57.809Z,3988.00
2019-05-29T11:23:56.194Z,4220.00
2019-05-29T11:24:56.647Z,4440.00
2019-05-29T11:25:56.220Z,4696.00
2019-05-29T11:26:56.697Z,4932.00
2019-05-29T11:27:56.681Z,5160.00
2019-05-29T11:28:56.645Z,5388.00
2019-05-29T11:29:57.096Z,5600.00
2019-05-29T11:30:57.229Z,5776.00
2019-05-29T11:31:56.976Z,6012.00
2019-05-29T11:32:57.524Z,6300.00
2019-05-29T11:33:57.159Z,6584.00
2019-05-29T11:34:57.418Z,6864.00
2019-05-29T11:36:08.557Z,7140.00
2019-05-29T11:36:58.245Z,7392.00
2019-05-29T11:37:56.572Z,7484.00
2019-05-29T11:38:56.911Z,7392.00
2019-05-29T11:39:56.836Z,7464.00
2019-05-29T11:41:22.815Z,7564.00
2019-05-29T11:41:56.959Z,7744.00
2019-05-29T11:42:56.936Z,7920.00
2019-05-29T11:43:56.901Z,8084.00
2019-05-29T11:44:56.938Z,8248.00
2019-05-29T11:45:57.273Z,8252.00
2019-05-29T11:46:56.181Z,8216.00
2019-05-29T11:47:57.336Z,8104.00
2019-05-29T11:48:57.215Z,8140.00
2019-05-29T11:50:00.384Z,8272.00
2019-05-29T11:50:56.963Z,8320.00
2019-05-29T11:52:18.596Z,8224.00
2019-05-29T11:52:56.875Z,8204.00
2019-05-29T11:53:55.942Z,8304.00
2019-05-29T11:54:59.203Z,8348.00
2019-05-29T11:55:56.017Z,8324.00
2019-05-29T11:56:57.245Z,8300.00
2019-05-29T11:57:55.917Z,8292.00
2019-05-29T11:58:56.924Z,8296.00
2019-05-29T11:59:59.168Z,8304.00
2019-05-29T12:00:55.739Z,8324.00
2019-05-29T12:01:57.296Z,8412.00
2019-05-29T12:02:55.895Z,8556.00
2019-05-29T12:04:19.593Z,8664.00
2019-05-29T12:04:57.217Z,8680.00
2019-05-29T12:05:55.757Z,8444.00
2019-05-29T12:06:55.763Z,7884.00
2019-05-29T12:07:55.676Z,7240.00
2019-05-29T12:08:55.825Z,6680.00
2019-05-29T12:09:55.636Z,6384.00
2019-05-29T12:10:55.618Z,6248.00
2019-05-29T12:11:56.090Z,6120.00
2019-05-29T12:12:55.617Z,5856.00
2019-05-29T12:13:56.101Z,5524.00
2019-05-29T12:15:05.978Z,5240.00
2019-05-29T12:15:57.641Z,4900.00
2019-05-29T12:16:55.949Z,4648.00
2019-05-29T12:18:09.161Z,4540.00
2019-05-29T12:18:57.734Z,4580.00
2019-05-29T12:19:56.069Z,4728.00
2019-05-29T12:20:56.160Z,4904.00
2019-05-29T12:21:56.478Z,4944.00
2019-05-29T12:23:19.783Z,4992.00
2019-05-29T12:23:56.488Z,5108.00
2019-05-29T12:24:56.505Z,5260.00
2019-05-29T12:26:16.548Z,5540.00
2019-05-29T12:26:56.509Z,5808.00
2019-05-29T12:28:04.297Z,6120.00